createdAt,value
2023-04-04T00:00:39.155Z,96895.00
2023-04-04T00:03:07.285Z,96896.31
2023-04-04T00:05:35.612Z,96881.59
2023-04-04T00:08:03.910Z,96885.66
2023-04-04T00:10:33.037Z,96893.88
2023-04-04T00:13:01.205Z,96892.47
2023-04-04T00:15:28.980Z,96881.03
2023-04-04T00:17:57.235Z,96879.53
2023-04-04T00:20:25.124Z,96882.09
2023-04-04T00:22:52.861Z,96888.09
2023-04-04T00:25:20.708Z,96884.84
2023-04-04T00:27:50.270Z,96880.56
2023-04-04T00:30:18.058Z,96881.00
2023-04-04T00:32:45.950Z,96878.84
2023-04-04T00:35:13.809Z,96874.56
2023-04-04T00:37:41.548Z,96877.66
2023-04-04T00:40:10.204Z,96870.94
2023-04-04T00:42:38.346Z,96866.91
2023-04-04T00:45:08.973Z,96872.22
2023-04-04T00:47:38.824Z,96868.28
2023-04-04T00:50:08.413Z,96868.28
2023-04-04T00:52:37.306Z,96861.00
2023-04-04T00:55:06.416Z,96857.19
2023-04-04T00:57:35.386Z,96851.31
2023-04-04T01:00:05.270Z,96851.50
2023-04-04T01:02:34.491Z,96853.00
2023-04-04T01:05:04.414Z,96845.84
2023-04-04T01:07:32.926Z,96854.28
2023-04-04T01:10:02.413Z,96847.13
2023-04-04T01:12:31.040Z,96852.88
2023-04-04T01:14:58.810Z,96851.50
2023-04-04T01:17:27.585Z,96843.06
2023-04-04T01:20:04.299Z,96835.91
2023-04-04T01:22:39.890Z,96834.28
2023-04-04T01:25:10.081Z,96829.91
2023-04-04T01:27:42.155Z,96831.50
2023-04-04T01:30:16.876Z,96828.50
2023-04-04T01:32:49.021Z,96827.13
2023-04-04T01:35:24.697Z,96821.44
2023-04-04T01:37:59.433Z,96822.94
2023-04-04T01:40:35.010Z,96817.25
2023-04-04T01:43:04.401Z,96814.59
2023-04-04T01:45:35.371Z,96807.91
2023-04-04T01:48:08.229Z,96808.38
2023-04-04T01:50:36.191Z,96810.22
2023-04-04T01:53:04.005Z,96799.22
2023-04-04T01:55:32.153Z,96812.28
2023-04-04T01:58:00.637Z,96809.84
2023-04-04T02:00:29.823Z,96808.66
2023-04-04T02:02:57.608Z,96804.41
2023-04-04T02:05:25.709Z,96809.94
2023-04-04T02:07:53.462Z,96812.38
2023-04-04T02:10:31.016Z,96812.84
2023-04-04T02:12:59.597Z,96805.31
2023-04-04T02:15:29.043Z,96805.88
2023-04-04T02:17:56.903Z,96806.13
2023-04-04T02:20:24.689Z,96807.59
2023-04-04T02:22:53.955Z,96800.69
2023-04-04T02:25:23.028Z,96813.00
2023-04-04T02:27:50.912Z,96797.91
2023-04-04T02:30:19.432Z,96799.97
2023-04-04T02:32:50.257Z,96808.97
2023-04-04T02:35:20.603Z,96804.13
2023-04-04T02:37:48.518Z,96803.50
2023-04-04T02:40:24.132Z,96805.00
2023-04-04T02:42:51.921Z,96796.84
2023-04-04T02:45:21.540Z,96797.41
2023-04-04T02:48:03.761Z,96811.03
2023-04-04T02:50:40.513Z,96805.38
2023-04-04T02:53:09.855Z,96808.25
2023-04-04T02:55:38.065Z,96805.47
2023-04-04T02:58:06.145Z,96803.00
2023-04-04T03:00:34.007Z,96806.28
2023-04-04T03:03:03.891Z,96796.47
2023-04-04T03:05:35.200Z,96800.38
2023-04-04T03:08:04.729Z,96804.84
2023-04-04T03:10:32.615Z,96802.66
2023-04-04T03:13:00.438Z,96797.94
2023-04-04T03:15:30.609Z,96804.84
2023-04-04T03:18:00.092Z,96810.16
2023-04-04T03:20:31.360Z,96799.56
2023-04-04T03:22:59.495Z,96804.28
2023-04-04T03:25:27.682Z,96800.22
2023-04-04T03:27:55.884Z,96797.34
2023-04-04T03:30:28.041Z,96805.53
2023-04-04T03:32:56.629Z,96800.66
2023-04-04T03:35:24.531Z,96798.69
2023-04-04T03:37:54.702Z,96796.25
2023-04-04T03:40:22.503Z,96794.66
2023-04-04T03:42:51.454Z,96800.38
2023-04-04T03:45:21.062Z,96787.38
2023-04-04T03:47:48.939Z,96799.59
2023-04-04T03:50:16.858Z,96801.19
2023-04-04T03:52:51.133Z,96801.19
2023-04-04T03:55:21.136Z,96796.50
2023-04-04T03:57:49.573Z,96791.88
2023-04-04T04:00:18.244Z,96796.34
2023-04-04T04:02:46.470Z,96797.59
2023-04-04T04:05:14.513Z,96803.13
2023-04-04T04:07:44.515Z,96801.72
2023-04-04T04:10:14.008Z,96797.09
2023-04-04T04:12:43.127Z,96795.84
2023-04-04T04:15:11.646Z,96807.50
2023-04-04T04:17:42.228Z,96803.56
2023-04-04T04:20:12.841Z,96808.66
2023-04-04T04:22:47.226Z,96798.72
2023-04-04T04:25:15.838Z,96810.13
2023-04-04T04:27:49.645Z,96809.09
2023-04-04T04:30:20.844Z,96805.84
2023-04-04T04:32:50.320Z,96803.19
2023-04-04T04:35:20.483Z,96807.13
2023-04-04T04:37:48.949Z,96805.13
2023-04-04T04:40:18.027Z,96811.81
2023-04-04T04:42:56.886Z,96811.66
2023-04-04T04:45:25.614Z,96819.41
2023-04-04T04:48:05.101Z,96813.66
2023-04-04T04:50:35.543Z,96818.16
2023-04-04T04:53:03.730Z,96813.88
2023-04-04T04:55:31.930Z,96818.75
2023-04-04T04:58:06.913Z,96812.41
2023-04-04T05:00:34.841Z,96824.19
2023-04-04T05:03:02.622Z,96821.53
2023-04-04T05:05:38.868Z,96813.59
2023-04-04T05:08:11.182Z,96823.38
2023-04-04T05:10:46.000Z,96820.06
2023-04-04T05:13:15.114Z,96820.06
2023-04-04T05:15:48.328Z,96824.47
2023-04-04T05:18:17.366Z,96824.06
2023-04-04T05:20:51.974Z,96817.84
2023-04-04T05:23:19.818Z,96821.81
2023-04-04T05:25:50.004Z,96821.50
2023-04-04T05:28:19.203Z,96822.44
2023-04-04T05:30:47.046Z,96827.31
2023-04-04T05:33:18.833Z,96825.59
2023-04-04T05:35:56.703Z,96825.06
2023-04-04T05:38:24.626Z,96825.75
2023-04-04T05:40:54.599Z,96837.34
2023-04-04T05:43:25.122Z,96834.59
2023-04-04T05:46:00.024Z,96832.63
2023-04-04T05:48:29.249Z,96836.00
2023-04-04T05:50:57.318Z,96832.91
2023-04-04T05:53:36.861Z,96838.72
2023-04-04T05:56:05.772Z,96838.81
2023-04-04T05:58:36.800Z,96833.16
2023-04-04T06:01:08.052Z,96839.19
2023-04-04T06:03:36.946Z,96828.94
2023-04-04T06:06:08.136Z,96828.81
2023-04-04T06:08:50.281Z,96840.72
2023-04-04T06:11:21.758Z,96828.59
2023-04-04T06:13:51.211Z,96831.34
2023-04-04T06:16:21.096Z,96827.19
2023-04-04T06:18:49.470Z,96828.72
2023-04-04T06:21:17.691Z,96835.50
2023-04-04T06:23:45.719Z,96831.47
2023-04-04T06:26:14.812Z,96824.97
2023-04-04T06:28:49.214Z,96819.06
2023-04-04T06:31:21.222Z,96833.63
2023-04-04T06:33:50.140Z,96834.63
2023-04-04T06:36:19.828Z,96833.22
2023-04-04T06:38:48.592Z,96832.63
2023-04-04T06:41:21.874Z,96832.16
2023-04-04T06:43:51.498Z,96829.44
2023-04-04T06:46:19.372Z,96830.38
2023-04-04T06:48:49.299Z,96839.47
2023-04-04T06:51:18.440Z,96834.91
2023-04-04T06:53:47.633Z,96841.47
2023-04-04T06:56:15.398Z,96844.91
2023-04-04T06:58:43.152Z,96837.88
2023-04-04T07:01:11.745Z,96836.69
2023-04-04T07:03:39.562Z,96833.38
2023-04-04T07:06:08.644Z,96836.47
2023-04-04T07:08:37.047Z,96831.03
2023-04-04T07:11:05.204Z,96838.38
2023-04-04T07:13:32.930Z,96827.47
2023-04-04T07:16:00.701Z,96830.53
2023-04-04T07:18:28.373Z,96833.03
2023-04-04T07:20:56.123Z,96838.59
2023-04-04T07:23:25.543Z,96833.78
2023-04-04T07:25:53.320Z,96839.38
2023-04-04T07:28:21.046Z,96834.38
2023-04-04T07:30:48.761Z,96832.41
2023-04-04T07:33:16.477Z,96830.63
2023-04-04T07:35:44.233Z,96833.56
2023-04-04T07:38:11.948Z,96830.06
2023-04-04T07:40:41.562Z,96835.53
2023-04-04T07:43:09.617Z,96826.44
2023-04-04T07:45:37.353Z,96828.94
2023-04-04T07:48:05.676Z,96831.41
2023-04-04T07:50:33.441Z,96834.13
2023-04-04T07:53:01.522Z,96822.47
2023-04-04T07:55:29.266Z,96822.75
2023-04-04T07:57:59.005Z,96827.72
2023-04-04T08:00:26.998Z,96829.72
2023-04-04T08:02:56.257Z,96829.78
2023-04-04T08:05:24.519Z,96826.63
2023-04-04T08:07:52.592Z,96831.91
2023-04-04T08:10:22.581Z,96825.69
2023-04-04T08:12:50.464Z,96818.72
2023-04-04T08:15:19.572Z,96825.06
2023-04-04T08:17:47.484Z,96829.38
2023-04-04T08:20:15.530Z,96825.72
2023-04-04T08:22:43.764Z,96829.84
2023-04-04T08:25:11.937Z,96830.09
2023-04-04T08:27:43.849Z,96825.56
2023-04-04T08:30:13.365Z,96830.63
2023-04-04T08:32:44.179Z,96826.22
2023-04-04T08:35:12.259Z,96823.09
2023-04-04T08:37:45.200Z,96827.13
2023-04-04T08:40:13.561Z,96823.66
2023-04-04T08:42:43.213Z,96817.78
2023-04-04T08:45:12.803Z,96827.19
2023-04-04T08:47:43.135Z,96822.38
2023-04-04T08:50:11.643Z,96839.00
2023-04-04T08:52:41.699Z,96834.72
2023-04-04T08:55:10.277Z,96837.41
2023-04-04T08:57:38.081Z,96834.97
2023-04-04T09:00:07.681Z,96829.09
2023-04-04T09:02:47.593Z,96830.41
2023-04-04T09:05:15.557Z,96835.53
2023-04-04T09:07:44.889Z,96844.66
2023-04-04T09:10:13.263Z,96834.44
2023-04-04T09:12:44.202Z,96845.97
2023-04-04T09:15:12.769Z,96844.91
2023-04-04T09:17:41.885Z,96846.78
2023-04-04T09:20:37.406Z,96847.34
2023-04-04T09:23:07.848Z,96830.03
2023-04-04T09:25:35.939Z,96832.38
2023-04-04T09:28:05.553Z,96841.88
2023-04-04T09:30:35.454Z,96850.97
2023-04-04T09:33:06.141Z,96847.75
2023-04-04T09:35:36.422Z,96842.44
2023-04-04T09:38:04.526Z,96847.91
2023-04-04T09:40:32.627Z,96833.72
2023-04-04T09:43:04.660Z,96844.38
2023-04-04T09:45:33.466Z,96849.38
2023-04-04T09:48:01.330Z,96841.38
2023-04-04T09:50:30.662Z,96854.41
2023-04-04T09:53:00.178Z,96844.41
2023-04-04T09:55:38.358Z,96847.94
2023-04-04T09:58:14.917Z,96841.53
2023-04-04T10:00:44.958Z,96839.94
2023-04-04T10:03:15.143Z,96845.28
2023-04-04T10:05:46.696Z,96842.03
2023-04-04T10:08:16.783Z,96851.94
2023-04-04T10:11:02.496Z,96846.50
2023-04-04T10:13:36.799Z,96843.53
2023-04-04T10:16:05.638Z,96835.88
2023-04-04T10:18:34.905Z,96838.50
2023-04-04T10:21:15.396Z,96836.94
2023-04-04T10:23:47.448Z,96830.84
2023-04-04T10:26:15.414Z,96841.41
2023-04-04T10:28:43.653Z,96839.97
2023-04-04T10:31:18.420Z,96837.41
2023-04-04T10:33:53.436Z,96840.31
2023-04-04T10:36:25.495Z,96837.78
2023-04-04T10:39:04.208Z,96832.09
2023-04-04T10:41:33.419Z,96832.75
2023-04-04T10:44:10.578Z,96832.63
2023-04-04T10:46:42.732Z,96833.22
2023-04-04T10:49:11.657Z,96835.03
2023-04-04T10:51:49.184Z,96837.97
2023-04-04T10:54:23.822Z,96836.56
2023-04-04T10:56:53.883Z,96827.44
2023-04-04T10:59:21.900Z,96831.19
2023-04-04T11:01:51.963Z,96828.72
2023-04-04T11:04:22.038Z,96822.72
2023-04-04T11:07:14.449Z,96825.25
2023-04-04T11:09:53.031Z,96816.22
2023-04-04T11:12:28.407Z,96817.22
2023-04-04T11:15:08.400Z,96808.88
2023-04-04T11:17:43.968Z,96803.44
2023-04-04T11:20:12.078Z,96807.72
2023-04-04T11:22:43.811Z,96806.88
2023-04-04T11:25:30.515Z,96798.91
2023-04-04T11:27:59.162Z,96805.41
2023-04-04T11:30:28.443Z,96804.06
2023-04-04T11:33:07.029Z,96804.06
2023-04-04T11:35:39.612Z,96798.66
2023-04-04T11:38:16.872Z,96794.66
2023-04-04T11:40:54.407Z,96792.22
2023-04-04T11:43:24.949Z,96803.25
2023-04-04T11:45:52.805Z,96798.31
2023-04-04T11:48:21.715Z,96802.50
2023-04-04T11:50:51.374Z,96805.13
2023-04-04T11:53:21.047Z,96800.50
2023-04-04T11:55:51.485Z,96801.22
2023-04-04T11:58:20.346Z,96795.84
2023-04-04T12:00:48.118Z,96775.13
2023-04-04T12:03:18.470Z,96789.97
2023-04-04T12:05:47.893Z,96775.59
2023-04-04T12:08:17.911Z,96790.09
2023-04-04T12:10:47.016Z,96781.31
2023-04-04T12:13:14.717Z,96784.41
2023-04-04T12:15:43.973Z,96781.59
2023-04-04T12:18:11.825Z,96778.06
2023-04-04T12:20:43.621Z,96776.94
2023-04-04T12:23:12.090Z,96784.81
2023-04-04T12:25:44.815Z,96781.63
2023-04-04T12:28:15.000Z,96784.38
2023-04-04T12:30:43.495Z,96791.66
2023-04-04T12:33:11.396Z,96781.91
2023-04-04T12:35:39.676Z,96785.78
2023-04-04T12:38:10.595Z,96782.53
2023-04-04T12:40:39.625Z,96785.25
2023-04-04T12:43:08.881Z,96786.44
2023-04-04T12:45:41.763Z,96775.59
2023-04-04T12:48:13.698Z,96767.97
2023-04-04T12:50:52.601Z,96776.97
2023-04-04T12:53:28.916Z,96774.34
2023-04-04T12:56:03.106Z,96774.28
2023-04-04T12:58:34.241Z,96765.84
2023-04-04T13:01:06.859Z,96762.53
2023-04-04T13:03:35.383Z,96768.13
2023-04-04T13:06:03.734Z,96764.78
2023-04-04T13:08:31.768Z,96760.16
2023-04-04T13:11:02.829Z,96762.72
2023-04-04T13:13:35.517Z,96755.41
2023-04-04T13:16:06.259Z,96754.03
2023-04-04T13:18:37.346Z,96742.41
2023-04-04T13:21:05.702Z,96754.88
2023-04-04T13:23:34.109Z,96752.69
2023-04-04T13:26:01.860Z,96760.94
2023-04-04T13:28:29.562Z,96756.44
2023-04-04T13:30:57.312Z,96752.41
2023-04-04T13:33:26.601Z,96755.22
2023-04-04T13:35:54.548Z,96743.28
2023-04-04T13:38:27.299Z,96740.63
2023-04-04T13:40:55.347Z,96737.78
2023-04-04T13:43:23.234Z,96737.28
2023-04-04T13:45:52.959Z,96747.44
2023-04-04T13:48:20.753Z,96739.88
2023-04-04T13:50:51.402Z,96747.44
2023-04-04T13:53:19.647Z,96745.34
2023-04-04T13:56:13.241Z,96750.34
2023-04-04T13:58:35.045Z,96741.88
2023-04-04T14:01:04.252Z,96748.59
2023-04-04T14:03:32.525Z,96745.53
2023-04-04T14:06:09.241Z,96744.81
2023-04-04T14:08:38.381Z,96739.00
2023-04-04T14:11:06.621Z,96726.34
2023-04-04T14:13:34.393Z,96724.09
2023-04-04T14:16:02.179Z,96727.06
2023-04-04T14:18:29.910Z,96733.75
2023-04-04T14:20:57.758Z,96735.66
2023-04-04T14:23:27.134Z,96733.03
2023-04-04T14:25:54.928Z,96732.25
2023-04-04T14:28:22.646Z,96727.56
2023-04-04T14:30:51.523Z,96725.97
2023-04-04T14:33:19.307Z,96728.16
2023-04-04T14:35:46.991Z,96723.72
2023-04-04T14:38:14.701Z,96719.47
2023-04-04T14:40:43.857Z,96710.03
2023-04-04T14:43:11.631Z,96719.44
2023-04-04T14:45:39.859Z,96719.66
2023-04-04T14:48:07.869Z,96722.88
2023-04-04T14:50:36.403Z,96719.97
2023-04-04T14:53:05.038Z,96716.97
2023-04-04T14:55:32.721Z,96723.91
2023-04-04T14:58:03.193Z,96717.94
2023-04-04T15:00:31.443Z,96723.03
2023-04-04T15:02:59.430Z,96709.13
2023-04-04T15:05:27.235Z,96714.69
2023-04-04T15:07:55.525Z,96708.91
2023-04-04T15:10:23.968Z,96706.72
2023-04-04T15:12:51.855Z,96706.25
2023-04-04T15:15:23.144Z,96718.00
2023-04-04T15:17:52.001Z,96710.91
2023-04-04T15:20:21.583Z,96721.78
2023-04-04T15:22:49.285Z,96711.41
2023-04-04T15:25:17.041Z,96709.72
2023-04-04T15:27:44.807Z,96707.03
2023-04-04T15:30:14.073Z,96713.78
2023-04-04T15:32:43.372Z,96704.59
2023-04-04T15:35:17.464Z,96697.78
2023-04-04T15:37:45.209Z,96702.59
2023-04-04T15:40:13.384Z,96704.75
2023-04-04T15:42:41.299Z,96708.41
2023-04-04T15:45:10.164Z,96703.97
2023-04-04T15:47:38.228Z,96698.78
2023-04-04T15:50:08.918Z,96700.22
2023-04-04T15:52:36.852Z,96711.19
2023-04-04T15:55:04.941Z,96705.78
2023-04-04T15:57:32.725Z,96699.41
2023-04-04T16:00:00.431Z,96701.19
2023-04-04T16:02:28.260Z,96708.88
2023-04-04T16:04:57.386Z,96712.50
2023-04-04T16:07:26.547Z,96720.13
2023-04-04T16:09:54.436Z,96714.34
2023-04-04T16:12:22.413Z,96707.50
2023-04-04T16:14:50.257Z,96716.03
2023-04-04T16:17:17.985Z,96709.69
2023-04-04T16:19:46.636Z,96706.59
2023-04-04T16:22:15.238Z,96707.34
2023-04-04T16:24:44.476Z,96703.38
2023-04-04T16:27:12.205Z,96704.00
2023-04-04T16:29:39.952Z,96698.47
2023-04-04T16:32:08.189Z,96706.59
2023-04-04T16:34:38.788Z,96704.28
2023-04-04T16:37:06.721Z,96704.06
2023-04-04T16:39:34.437Z,96702.22
2023-04-04T16:42:03.644Z,96703.06
2023-04-04T16:44:31.946Z,96694.00
2023-04-04T16:46:59.915Z,96700.19
2023-04-04T16:49:27.642Z,96702.59
2023-04-04T16:51:55.329Z,96687.59
2023-04-04T16:54:23.058Z,96699.16
2023-04-04T16:56:51.020Z,96697.81
2023-04-04T16:59:28.918Z,96692.19
2023-04-04T17:01:56.628Z,96687.66
2023-04-04T17:04:24.499Z,96694.63
2023-04-04T17:06:52.259Z,96689.53
2023-04-04T17:09:19.994Z,96694.66
2023-04-04T17:11:47.715Z,96692.00
2023-04-04T17:14:15.442Z,96697.66
2023-04-04T17:16:44.814Z,96691.22
2023-04-04T17:19:12.505Z,96696.84
2023-04-04T17:21:40.243Z,96689.59
2023-04-04T17:24:08.046Z,96692.84
2023-04-04T17:26:46.440Z,96688.25
2023-04-04T17:29:15.451Z,96696.06
2023-04-04T17:31:48.747Z,96692.03
2023-04-04T17:34:18.345Z,96686.38
2023-04-04T17:36:47.011Z,96681.03
2023-04-04T17:39:15.093Z,96683.41
2023-04-04T17:41:43.456Z,96681.78
2023-04-04T17:44:11.520Z,96669.69
2023-04-04T17:46:40.572Z,96672.59
2023-04-04T17:49:10.430Z,96678.47
2023-04-04T17:51:38.497Z,96673.84
2023-04-04T17:54:06.617Z,96674.06
2023-04-04T17:56:34.392Z,96676.44
2023-04-04T17:59:02.293Z,96667.28
2023-04-04T18:01:30.650Z,96668.78
2023-04-04T18:03:58.550Z,96664.50
2023-04-04T18:06:29.251Z,96667.59
2023-04-04T18:08:57.333Z,96673.94
2023-04-04T18:11:25.243Z,96677.09
2023-04-04T18:13:55.451Z,96679.13
2023-04-04T18:16:23.759Z,96671.78
2023-04-04T18:18:51.771Z,96675.41
2023-04-04T18:21:19.836Z,96673.47
2023-04-04T18:23:51.498Z,96674.94
2023-04-04T18:26:19.419Z,96681.72
2023-04-04T18:28:50.019Z,96676.81
2023-04-04T18:31:17.930Z,96682.38
2023-04-04T18:33:49.669Z,96683.38
2023-04-04T18:36:18.856Z,96683.56
2023-04-04T18:38:46.889Z,96676.69
2023-04-04T18:41:17.389Z,96682.16
2023-04-04T18:43:45.341Z,96673.25
2023-04-04T18:46:13.159Z,96683.81
2023-04-04T18:48:44.249Z,96683.75
2023-04-04T18:51:12.254Z,96692.81
2023-04-04T18:53:39.963Z,96689.91
2023-04-04T18:56:10.113Z,96702.34
2023-04-04T18:58:39.171Z,96708.47
2023-04-04T19:01:09.527Z,96709.69
2023-04-04T19:03:42.737Z,96702.81
2023-04-04T19:06:13.239Z,96704.19
2023-04-04T19:08:42.322Z,96715.72
2023-04-04T19:11:10.612Z,96706.34
2023-04-04T19:13:39.833Z,96705.81
2023-04-04T19:16:07.806Z,96712.66
2023-04-04T19:18:35.903Z,96710.97
2023-04-04T19:21:05.508Z,96712.56
2023-04-04T19:23:34.753Z,96712.00
2023-04-04T19:26:02.592Z,96713.03
2023-04-04T19:28:31.422Z,96716.91
2023-04-04T19:31:01.866Z,96706.31
2023-04-04T19:33:33.366Z,96715.19
2023-04-04T19:36:07.828Z,96712.78
2023-04-04T19:38:36.919Z,96717.53
2023-04-04T19:41:09.054Z,96711.25
2023-04-04T19:43:41.804Z,96708.03
2023-04-04T19:46:12.966Z,96708.59
2023-04-04T19:48:48.497Z,96710.38
2023-04-04T19:51:38.796Z,96707.84
2023-04-04T19:54:09.564Z,96712.84
2023-04-04T19:56:38.686Z,96701.28
2023-04-04T19:59:09.225Z,96706.94
2023-04-04T20:01:44.647Z,96704.19
2023-04-04T20:04:15.185Z,96706.84
2023-04-04T20:06:43.027Z,96700.13
2023-04-04T20:09:14.339Z,96692.06
2023-04-04T20:11:42.338Z,96698.59
2023-04-04T20:14:11.196Z,96699.66
2023-04-04T20:16:48.064Z,96704.13
2023-04-04T20:19:17.269Z,96698.72
2023-04-04T20:21:45.121Z,96699.56
2023-04-04T20:24:18.021Z,96705.84
2023-04-04T20:26:54.609Z,96699.47
2023-04-04T20:29:25.336Z,96699.72
2023-04-04T20:31:56.376Z,96698.44
2023-04-04T20:34:33.906Z,96703.41
2023-04-04T20:37:05.025Z,96702.84
2023-04-04T20:39:38.830Z,96707.56
2023-04-04T20:42:20.115Z,96703.09
2023-04-04T20:44:48.060Z,96710.00
2023-04-04T20:47:42.704Z,96707.09
2023-04-04T20:50:46.214Z,96698.09
2023-04-04T20:53:19.443Z,96708.63
2023-04-04T20:55:47.262Z,96706.19
2023-04-04T20:58:38.972Z,96702.50
2023-04-04T21:01:10.226Z,96710.47
2023-04-04T21:03:40.101Z,96703.53
2023-04-04T21:06:13.158Z,96708.06
2023-04-04T21:08:44.464Z,96709.91
2023-04-04T21:11:14.039Z,96706.91
2023-04-04T21:13:43.283Z,96713.59
2023-04-04T21:16:12.724Z,96711.16
2023-04-04T21:18:42.484Z,96713.50
2023-04-04T21:21:13.343Z,96706.31
2023-04-04T21:23:46.832Z,96709.22
2023-04-04T21:26:29.484Z,96716.53
2023-04-04T21:29:00.871Z,96707.84
2023-04-04T21:31:34.974Z,96710.97
2023-04-04T21:34:12.429Z,96713.63
2023-04-04T21:36:41.354Z,96706.94
2023-04-04T21:39:12.453Z,96712.72
2023-04-04T21:41:40.660Z,96716.97
2023-04-04T21:44:10.887Z,96709.25
2023-04-04T21:46:40.273Z,96717.47
2023-04-04T21:49:10.492Z,96703.38
2023-04-04T21:51:38.596Z,96708.00
2023-04-04T21:54:07.398Z,96700.28
2023-04-04T21:56:35.399Z,96693.78
2023-04-04T21:59:05.114Z,96707.56
2023-04-04T22:01:33.076Z,96705.34
2023-04-04T22:04:01.243Z,96707.56
2023-04-04T22:06:35.035Z,96703.75
2023-04-04T22:09:04.116Z,96699.56
2023-04-04T22:11:34.740Z,96704.88
2023-04-04T22:14:06.862Z,96708.81
2023-04-04T22:16:39.389Z,96698.91
2023-04-04T22:19:10.716Z,96691.38
2023-04-04T22:21:46.618Z,96695.44
2023-04-04T22:24:17.842Z,96706.06
2023-04-04T22:26:46.654Z,96696.44
2023-04-04T22:29:14.679Z,96702.13
2023-04-04T22:31:42.486Z,96707.06
2023-04-04T22:34:11.858Z,96700.94
2023-04-04T22:36:43.684Z,96696.81
2023-04-04T22:39:16.469Z,96692.78
2023-04-04T22:41:44.345Z,96697.50
2023-04-04T22:44:12.047Z,96694.72
2023-04-04T22:46:39.846Z,96696.69
2023-04-04T22:49:08.796Z,96701.28
2023-04-04T22:51:43.974Z,96697.13
2023-04-04T22:54:15.469Z,96694.81
2023-04-04T22:56:43.317Z,96699.16
2023-04-04T22:59:11.476Z,96689.91
2023-04-04T23:01:39.442Z,96688.78
2023-04-04T23:04:07.462Z,96689.34
2023-04-04T23:06:35.756Z,96689.91
2023-04-04T23:09:03.490Z,96688.31
2023-04-04T23:11:32.567Z,96683.59
2023-04-04T23:14:00.558Z,96680.47
2023-04-04T23:16:31.001Z,96680.03
2023-04-04T23:18:58.728Z,96677.13
2023-04-04T23:21:28.703Z,96673.47
2023-04-04T23:23:57.522Z,96671.63
2023-04-04T23:26:25.333Z,96666.31
2023-04-04T23:28:56.740Z,96672.19
2023-04-04T23:31:25.613Z,96666.44
2023-04-04T23:33:55.740Z,96666.66
2023-04-04T23:36:23.881Z,96661.94
2023-04-04T23:38:51.595Z,96660.09
2023-04-04T23:41:19.292Z,96658.00
2023-04-04T23:43:49.182Z,96660.66
2023-04-04T23:46:18.327Z,96655.34
2023-04-04T23:48:46.466Z,96658.81
2023-04-04T23:51:16.062Z,96659.16
2023-04-04T23:53:44.078Z,96652.59
2023-04-04T23:56:12.367Z,96653.97
2023-04-04T23:58:40.469Z,96652.47
